Time;durP1;ratioP1;P1;durP2;ratioP2;P2;SDS_P1;SDS_P2;PMS_P1;PMS_P2;Temp;Humidity;BMP_temperature;BMP_pressure;BME280_temperature;BME280_humidity;BME280_pressure;Samples;Min_cycle;Max_cycle;Signal;HPM_P1;HPM_P2
2023/08/26 00:02:09;;;;;;;20.40;18.80;;;;;;;25.67;55.77;99578.69;5030094;27;97114;-87
2023/08/26 00:04:34;;;;;;;20.58;19.02;;;;;;;25.76;55.63;99583.06;5037642;27;99058;-87
2023/08/26 00:07:00;;;;;;;20.15;18.55;;;;;;;25.75;55.02;99562.59;5032692;28;98836;-87
2023/08/26 00:09:26;;;;;;;20.17;18.67;;;;;;;25.97;54.63;99567.28;5020157;28;96735;-86
2023/08/26 00:11:53;;;;;;;20.23;18.33;;;;;;;26.08;54.48;99576.03;5029161;27;97229;-86
2023/08/26 00:14:19;;;;;;;20.88;19.10;;;;;;;26.10;54.23;99574.00;5056249;27;98729;-87
2023/08/26 00:16:44;;;;;;;21.38;19.45;;;;;;;26.11;54.44;99568.44;5053184;27;98789;-86
2023/08/26 00:19:10;;;;;;;19.98;18.60;;;;;;;26.15;54.00;99571.63;5029719;27;96700;-87
2023/08/26 00:21:37;;;;;;;19.52;18.13;;;;;;;26.20;54.06;99574.66;5030035;27;96706;-86
2023/08/26 00:24:04;;;;;;;19.50;18.13;;;;;;;26.20;54.20;99577.34;5023145;27;98984;-87
2023/08/26 00:26:29;;;;;;;20.42;18.63;;;;;;;26.21;54.11;99584.41;5036118;28;98827;-87
2023/08/26 00:28:55;;;;;;;19.80;18.20;;;;;;;26.20;54.11;99582.72;5000548;27;96818;-87
2023/08/26 00:31:22;;;;;;;19.40;18.10;;;;;;;26.19;54.36;99586.44;5030147;28;96836;-87
2023/08/26 00:33:48;;;;;;;19.52;18.13;;;;;;;26.19;54.32;99581.88;4987568;27;98895;-87
2023/08/26 00:36:13;;;;;;;19.95;18.45;;;;;;;26.18;54.31;99584.75;5056088;27;98351;-87
2023/08/26 00:38:39;;;;;;;20.02;18.55;;;;;;;26.20;54.48;99583.56;5025888;28;96914;-87
2023/08/26 00:41:04;;;;;;;19.63;18.33;;;;;;;26.19;54.64;99579.19;5018310;28;96747;-87
2023/08/26 00:43:30;;;;;;;19.42;17.90;;;;;;;26.17;54.42;99572.31;5017867;28;100418;-87
2023/08/26 00:45:58;;;;;;;20.58;18.90;;;;;;;26.07;54.33;99564.44;5005314;27;100685;-87
2023/08/26 00:48:24;;;;;;;20.10;18.58;;;;;;;26.09;54.53;99566.94;5029524;28;96953;-87
2023/08/26 00:50:50;;;;;;;19.13;17.75;;;;;;;26.12;54.43;99577.34;5021572;28;96788;-87
2023/08/26 00:53:16;;;;;;;20.23;18.35;;;;;;;26.11;54.34;99573.00;5017841;28;98929;-88
2023/08/26 00:55:43;;;;;;;20.50;18.63;;;;;;;25.99;54.64;99568.97;5017773;28;99371;-87
2023/08/26 00:58:10;;;;;;;19.48;18.08;;;;;;;25.99;54.73;99582.44;5017748;28;96745;-86
2023/08/26 01:00:36;;;;;;;20.25;18.85;;;;;;;25.97;54.97;99578.03;5046406;27;96799;-87
2023/08/26 01:03:03;;;;;;;20.27;18.77;;;;;;;25.97;54.87;99582.59;5036559;27;98841;-86
2023/08/26 01:05:29;;;;;;;20.90;19.05;;;;;;;25.91;54.82;99577.88;5024316;28;97679;-87
2023/08/26 01:07:55;;;;;;;20.42;18.83;;;;;;;25.85;54.75;99567.81;5014854;28;96818;-87
2023/08/26 01:10:31;;;;;;;20.05;18.55;;;;;;;25.86;55.07;99581.09;5014361;28;96967;-87
2023/08/26 01:13:02;;;;;;;20.38;18.48;;;;;;;25.74;55.21;99572.50;4994273;28;97652;-87
2023/08/26 01:15:29;;;;;;;20.05;18.52;;;;;;;25.79;55.13;99577.34;5007726;27;99339;-87
2023/08/26 01:17:54;;;;;;;19.77;18.02;;;;;;;25.79;54.99;99587.28;5020973;27;96963;-87
2023/08/26 01:20:20;;;;;;;21.23;19.63;;;;;;;25.71;55.15;99585.41;4997275;28;96849;-87
2023/08/26 01:22:51;;;;;;;20.42;18.90;;;;;;;25.71;55.47;99596.16;4990417;28;100175;-87
2023/08/26 01:25:17;;;;;;;20.15;18.70;;;;;;;25.68;55.69;99593.81;5016607;28;100573;-87
2023/08/26 01:27:43;;;;;;;20.95;19.05;;;;;;;25.59;55.76;99595.66;5026767;28;96575;-87
2023/08/26 01:30:09;;;;;;;19.90;18.40;;;;;;;25.56;55.70;99601.34;5030592;28;96845;-87
2023/08/26 01:32:49;;;;;;;20.67;19.00;;;;;;;25.50;55.91;99592.09;5023902;27;98764;-87
2023/08/26 01:35:20;;;;;;;21.42;19.83;;;;;;;25.42;56.02;99584.03;5023087;27;98415;-87
2023/08/26 01:37:46;;;;;;;21.63;19.80;;;;;;;25.45;56.09;99598.97;5009354;28;96826;-87
2023/08/26 01:40:11;;;;;;;21.33;19.77;;;;;;;25.41;55.88;99603.84;5030947;27;97264;-87
2023/08/26 01:42:40;;;;;;;20.35;18.95;;;;;;;25.42;55.81;99591.25;5017557;28;99153;-87
2023/08/26 01:45:06;;;;;;;20.80;19.40;;;;;;;25.42;55.55;99602.00;5005242;28;100639;-88
2023/08/26 01:47:32;;;;;;;21.23;19.67;;;;;;;25.41;55.81;99603.84;5029400;28;96747;-87
2023/08/26 01:49:59;;;;;;;21.00;19.38;;;;;;;25.37;55.57;99593.63;5017503;27;96963;-87
2023/08/26 01:52:24;;;;;;;20.85;19.35;;;;;;;25.35;55.64;99591.09;5038416;27;98762;-87
2023/08/26 01:54:50;;;;;;;20.50;19.10;;;;;;;25.32;55.80;99594.09;5000519;28;100200;-87
2023/08/26 01:57:16;;;;;;;21.30;19.35;;;;;;;25.34;55.76;99588.56;5016548;28;96805;-87
2023/08/26 01:59:42;;;;;;;20.33;18.85;;;;;;;25.24;55.85;99578.81;5010852;28;96875;-87
2023/08/26 02:02:08;;;;;;;21.15;19.42;;;;;;;25.27;55.86;99588.38;5007995;28;100626;-87
2023/08/26 02:04:33;;;;;;;20.20;18.70;;;;;;;25.22;56.28;99583.53;5030569;28;98558;-88
2023/08/26 02:06:59;;;;;;;21.30;19.60;;;;;;;25.23;56.31;99592.41;5024989;28;96738;-87
2023/08/26 02:09:24;;;;;;;20.67;19.10;;;;;;;25.19;56.07;99586.53;5016704;28;96873;-86
2023/08/26 02:11:51;;;;;;;20.73;19.13;;;;;;;25.23;56.11;99598.63;5015707;28;97758;-87
2023/08/26 02:14:17;;;;;;;21.13;19.15;;;;;;;25.16;56.16;99591.38;5020148;28;98451;-86
2023/08/26 02:16:43;;;;;;;21.45;19.42;;;;;;;25.14;56.49;99596.91;5020544;28;96672;-87
2023/08/26 02:19:08;;;;;;;20.05;18.65;;;;;;;25.10;56.43;99589.31;5017266;28;97047;-87
2023/08/26 02:21:34;;;;;;;20.98;19.33;;;;;;;25.09;56.63;99585.78;5016581;28;100433;-87
2023/08/26 02:24:00;;;;;;;20.13;18.83;;;;;;;25.07;56.89;99582.41;5034602;28;97268;-87
2023/08/26 02:26:26;;;;;;;21.13;19.38;;;;;;;25.01;56.89;99578.53;5021829;28;96688;-87
2023/08/26 02:28:52;;;;;;;21.10;19.33;;;;;;;25.06;56.92;99586.94;5028482;28;96843;-87
2023/08/26 02:31:17;;;;;;;20.88;19.40;;;;;;;25.00;57.27;99584.91;5034210;28;98892;-87
2023/08/26 02:33:44;;;;;;;20.65;19.25;;;;;;;24.99;57.03;99583.25;5033890;27;98505;-87
2023/08/26 02:36:10;;;;;;;21.38;19.73;;;;;;;24.97;57.08;99585.25;5026049;28;96667;-87
2023/08/26 02:38:36;;;;;;;20.50;18.92;;;;;;;24.85;57.30;99594.59;5011147;27;96896;-87
2023/08/26 02:41:02;;;;;;;22.13;20.05;;;;;;;24.77;57.36;99583.81;5047380;27;97561;-86
2023/08/26 02:43:28;;;;;;;20.63;18.98;;;;;;;24.83;57.39;99580.50;5046985;27;98319;-87
2023/08/26 02:45:58;;;;;;;21.05;19.33;;;;;;;24.79;57.66;99588.03;5022548;27;97447;-87
2023/08/26 02:48:25;;;;;;;21.23;19.38;;;;;;;24.76;57.77;99596.41;5025352;28;96912;-87
2023/08/26 02:50:57;;;;;;;20.38;18.90;;;;;;;24.50;58.62;99600.97;5011920;28;99374;-88
2023/08/26 02:53:25;;;;;;;20.90;19.15;;;;;;;24.54;58.11;99596.97;5033985;27;98428;-87
2023/08/26 02:55:51;;;;;;;20.90;19.45;;;;;;;24.48;58.03;99602.97;5040236;27;96794;-87
2023/08/26 02:58:18;;;;;;;21.42;19.58;;;;;;;24.51;58.51;99600.81;5036182;27;98235;-87
2023/08/26 03:00:43;;;;;;;21.17;19.40;;;;;;;24.56;58.68;99606.53;5039664;27;98987;-87
2023/08/26 03:03:09;;;;;;;22.60;20.40;;;;;;;24.45;58.60;99590.72;5029424;28;98323;-87
2023/08/26 03:05:35;;;;;;;20.73;19.17;;;;;;;24.52;58.37;99598.97;5028276;27;97072;-87
2023/08/26 03:08:00;;;;;;;22.77;20.92;;;;;;;24.42;58.44;99582.94;5013351;28;96883;-87
2023/08/26 03:10:26;;;;;;;21.20;19.50;;;;;;;24.42;58.83;99588.31;5023757;28;99422;-87
2023/08/26 03:12:54;;;;;;;21.80;19.80;;;;;;;24.45;58.56;99592.56;5017505;27;100571;-87
2023/08/26 03:15:19;;;;;;;21.48;19.77;;;;;;;24.42;58.73;99593.69;5026633;28;96798;-87
2023/08/26 03:17:45;;;;;;;21.38;19.63;;;;;;;24.32;58.57;99587.59;5033367;28;96894;-87
2023/08/26 03:20:12;;;;;;;21.80;20.10;;;;;;;24.36;58.70;99597.00;5012412;28;99361;-87
2023/08/26 03:22:38;;;;;;;22.13;20.25;;;;;;;24.42;58.42;99600.91;5013416;28;98380;-87
2023/08/26 03:25:04;;;;;;;21.58;19.92;;;;;;;24.12;59.56;99601.22;5024412;27;96667;-87
2023/08/26 03:27:30;;;;;;;22.52;20.63;;;;;;;24.02;59.99;99608.50;5040638;27;96827;-87
2023/08/26 03:29:56;;;;;;;21.63;19.98;;;;;;;23.91;60.23;99609.59;5009606;28;99006;-87
2023/08/26 03:32:21;;;;;;;21.52;20.05;;;;;;;24.08;59.66;99607.88;5032878;28;97578;-87
2023/08/26 03:34:47;;;;;;;22.75;21.05;;;;;;;24.15;59.68;99608.09;5026397;27;96814;-87
2023/08/26 03:37:13;;;;;;;21.98;20.45;;;;;;;23.97;60.06;99594.72;5036568;27;96813;-87
2023/08/26 03:39:39;;;;;;;21.38;19.88;;;;;;;23.92;60.30;99603.22;5014528;28;99467;-87
2023/08/26 03:42:05;;;;;;;22.58;20.67;;;;;;;23.92;60.28;99605.06;5012731;28;100092;-87
2023/08/26 03:44:31;;;;;;;23.75;20.67;;;;;;;23.91;60.06;99598.88;5015371;28;96612;-87
2023/08/26 03:46:56;;;;;;;23.17;21.30;;;;;;;23.92;60.01;99600.53;5014984;28;96807;-87
2023/08/26 03:49:22;;;;;;;21.50;20.02;;;;;;;24.02;59.85;99600.44;5014885;28;100437;-87
2023/08/26 03:51:48;;;;;;;21.30;19.80;;;;;;;24.06;59.75;99604.50;5028390;28;100000;-88
2023/08/26 03:54:14;;;;;;;21.58;20.05;;;;;;;24.05;59.82;99604.66;4998442;28;97140;-87
2023/08/26 03:56:39;;;;;;;21.60;20.10;;;;;;;23.95;59.87;99605.59;5033538;28;97297;-87
2023/08/26 03:59:05;;;;;;;22.25;20.52;;;;;;;23.99;59.44;99613.31;5018364;28;97932;-86
2023/08/26 04:01:31;;;;;;;21.52;19.92;;;;;;;23.95;59.51;99597.56;5033075;28;97430;-86
2023/08/26 04:03:57;;;;;;;23.15;21.20;;;;;;;24.11;59.34;99614.75;5032553;28;96748;-88
2023/08/26 04:06:23;;;;;;;21.88;20.00;;;;;;;24.10;59.01;99624.63;5009868;28;96953;-87
2023/08/26 04:08:49;;;;;;;21.67;19.90;;;;;;;24.08;58.96;99625.78;5005734;28;100673;-87
2023/08/26 04:11:17;;;;;;;21.42;19.88;;;;;;;23.84;59.56;99629.13;5013932;28;101334;-87
2023/08/26 04:13:45;;;;;;;21.63;19.83;;;;;;;23.72;59.71;99631.19;4998486;28;96652;-87
2023/08/26 04:16:11;;;;;;;20.88;19.27;;;;;;;23.61;60.13;99631.38;5002583;27;96830;-87
2023/08/26 04:18:36;;;;;;;21.20;19.75;;;;;;;23.88;59.37;99626.00;5045104;27;98744;-87
2023/08/26 04:21:02;;;;;;;21.80;19.98;;;;;;;23.99;59.12;99635.59;5028835;27;98988;-86
2023/08/26 04:23:29;;;;;;;21.75;20.08;;;;;;;24.05;58.76;99626.09;5018684;28;96856;-87
2023/08/26 04:26:00;;;;;;;21.38;19.88;;;;;;;24.08;58.55;99640.03;5032728;28;97001;-87
2023/08/26 04:28:26;;;;;;;22.02;20.20;;;;;;;24.17;58.10;99623.03;5026012;27;98923;-87
2023/08/26 04:30:52;;;;;;;21.45;19.85;;;;;;;24.27;57.63;99635.50;5034565;27;99224;-87
2023/08/26 04:33:20;;;;;;;21.33;19.73;;;;;;;24.28;57.72;99623.75;5005639;28;96800;-87
2023/08/26 04:35:45;;;;;;;21.02;19.45;;;;;;;24.38;57.38;99638.75;5027815;28;96855;-87
2023/08/26 04:38:13;;;;;;;21.50;20.10;;;;;;;24.56;57.04;99635.22;5005025;28;100474;-87
2023/08/26 04:40:38;;;;;;;20.58;19.17;;;;;;;24.56;56.56;99629.84;5013809;28;101076;-87
2023/08/26 04:43:04;;;;;;;20.52;19.02;;;;;;;24.61;56.27;99606.91;5014901;28;97341;-87
2023/08/26 04:45:29;;;;;;;20.73;19.10;;;;;;;24.71;55.80;99616.69;5012555;28;96846;-87
2023/08/26 04:47:55;;;;;;;20.58;19.17;;;;;;;24.85;55.56;99619.59;5032548;28;98542;-87
2023/08/26 04:50:21;;;;;;;20.45;18.55;;;;;;;24.80;55.46;99619.22;5014122;28;100259;-87
2023/08/26 04:52:47;;;;;;;20.30;18.70;;;;;;;25.12;55.20;99633.78;5014048;28;96853;-87
2023/08/26 04:55:13;;;;;;;20.33;18.90;;;;;;;25.35;54.73;99643.97;5011037;28;96832;-86
2023/08/26 04:57:39;;;;;;;20.80;19.40;;;;;;;25.65;54.25;99642.50;5030046;28;98572;-87
2023/08/26 05:00:10;;;;;;;20.90;19.17;;;;;;;25.49;53.67;99622.69;5008523;28;99693;-86
2023/08/26 05:02:39;;;;;;;20.98;19.40;;;;;;;25.69;53.13;99633.13;5011009;27;96926;-86
2023/08/26 05:05:05;;;;;;;20.20;18.70;;;;;;;25.51;53.24;99623.38;5035834;28;96761;-87
2023/08/26 05:07:32;;;;;;;20.67;19.15;;;;;;;25.72;53.16;99627.41;5021395;27;98646;-87
2023/08/26 05:09:57;;;;;;;20.95;19.55;;;;;;;26.19;52.19;99629.47;5049957;27;97346;-87
2023/08/26 05:12:24;;;;;;;20.38;18.98;;;;;;;26.35;51.42;99624.03;5030179;27;96807;-87
2023/08/26 05:14:50;;;;;;;20.92;19.25;;;;;;;26.52;51.05;99634.81;5018846;28;96866;-87
2023/08/26 05:17:16;;;;;;;20.50;18.98;;;;;;;26.84;50.65;99628.50;5045378;27;98973;-87
2023/08/26 05:19:42;;;;;;;20.38;18.65;;;;;;;27.30;49.81;99634.06;5024583;27;98738;-88
2023/08/26 05:22:07;;;;;;;20.77;19.27;;;;;;;27.32;49.22;99632.03;5031711;28;96829;-87
2023/08/26 05:24:34;;;;;;;20.10;18.60;;;;;;;27.48;48.91;99631.06;5046452;27;96829;-87
2023/08/26 05:26:59;;;;;;;20.63;18.85;;;;;;;28.04;48.15;99641.66;5020104;28;100475;-87
2023/08/26 05:29:26;;;;;;;19.13;17.83;;;;;;;28.56;47.04;99633.59;5017312;28;99144;-88
2023/08/26 05:31:53;;;;;;;19.88;18.48;;;;;;;29.01;45.83;99614.69;5018367;27;96660;-87
2023/08/26 05:34:19;;;;;;;20.02;18.65;;;;;;;29.81;44.48;99627.25;5030735;28;96812;-86
2023/08/26 05:36:45;;;;;;;20.02;18.63;;;;;;;30.77;42.52;99627.59;5003898;28;99624;-87
2023/08/26 05:39:10;;;;;;;19.58;18.15;;;;;;;31.55;41.23;99630.03;5034215;28;97731;-87
2023/08/26 05:41:36;;;;;;;19.33;18.05;;;;;;;32.19;39.67;99629.50;5034786;28;96766;-88
2023/08/26 05:44:02;;;;;;;20.83;19.27;;;;;;;29.80;43.11;99630.16;5031097;27;96894;-85
2023/08/26 05:46:28;;;;;;;19.65;18.35;;;;;;;31.22;41.14;99638.06;5044016;27;99197;-86
2023/08/26 05:48:53;;;;;;;19.58;18.17;;;;;;;32.38;39.29;99638.69;5022925;27;99894;-86
2023/08/26 05:51:19;;;;;;;19.92;18.58;;;;;;;33.16;37.01;99634.34;5048347;27;96948;-86
2023/08/26 05:53:44;;;;;;;19.77;18.35;;;;;;;31.54;40.24;99650.91;5048748;27;96883;-86
2023/08/26 05:56:10;;;;;;;20.05;18.45;;;;;;;29.99;43.39;99672.78;5017503;28;100597;-85
2023/08/26 05:58:36;;;;;;;19.05;17.77;;;;;;;29.78;44.04;99673.63;5016898;28;97302;-86
2023/08/26 06:01:01;;;;;;;19.02;17.67;;;;;;;29.62;44.45;99669.31;5031048;27;96876;-85
2023/08/26 06:03:27;;;;;;;18.70;17.60;;;;;;;29.10;45.15;99667.63;5034956;28;97049;-85
2023/08/26 06:05:52;;;;;;;20.30;18.90;;;;;;;29.01;45.58;99674.94;5034156;28;99097;-86
2023/08/26 06:08:18;;;;;;;19.65;18.25;;;;;;;28.76;46.17;99665.44;5009761;28;99100;-86
2023/08/26 06:10:44;;;;;;;20.70;19.10;;;;;;;28.47;46.84;99675.19;5008281;28;96809;-86
2023/08/26 06:13:10;;;;;;;20.52;18.80;;;;;;;28.51;47.12;99684.59;5035186;28;96763;-85
2023/08/26 06:15:37;;;;;;;20.98;19.48;;;;;;;28.73;47.44;99690.13;5034945;28;97949;-85
2023/08/26 06:18:04;;;;;;;19.63;18.42;;;;;;;29.27;45.86;99674.47;5020267;28;98753;-85
2023/08/26 06:20:29;;;;;;;20.52;18.77;;;;;;;29.09;46.99;99680.28;5022027;27;96898;-88
2023/08/26 06:22:55;;;;;;;19.35;18.10;;;;;;;28.92;47.48;99700.38;5026088;28;97517;-88
2023/08/26 06:25:20;;;;;;;20.25;18.85;;;;;;;28.83;47.44;99705.03;5027160;28;100359;-88
2023/08/26 06:27:46;;;;;;;20.33;18.88;;;;;;;28.65;47.85;99718.03;5023249;28;98899;-87
2023/08/26 06:30:12;;;;;;;20.30;18.90;;;;;;;28.52;48.51;99717.84;5012572;28;96728;-87
2023/08/26 06:32:37;;;;;;;20.55;19.00;;;;;;;27.72;50.32;99722.59;5021250;28;96844;-86
2023/08/26 06:35:04;;;;;;;19.35;18.05;;;;;;;27.27;51.58;99726.00;5002933;28;99632;-87
2023/08/26 06:37:30;;;;;;;20.85;18.90;;;;;;;27.14;52.12;99729.22;5029372;28;99671;-87
2023/08/26 06:39:55;;;;;;;19.63;18.20;;;;;;;27.15;52.13;99719.28;5045584;27;96730;-87
2023/08/26 06:42:21;;;;;;;20.10;18.58;;;;;;;27.17;52.01;99726.22;5051220;27;96814;-87
2023/08/26 06:44:54;;;;;;;20.58;18.90;;;;;;;27.09;52.61;99726.22;5016070;28;100961;-86
2023/08/26 06:47:20;;;;;;;19.77;18.38;;;;;;;27.27;52.23;99715.22;5016005;28;100367;-86
2023/08/26 06:49:46;;;;;;;20.27;18.77;;;;;;;26.98;52.77;99713.94;5015979;28;96750;-87
2023/08/26 06:52:11;;;;;;;20.40;18.95;;;;;;;27.18;52.11;99702.81;5033945;28;96864;-87
2023/08/26 06:54:38;;;;;;;19.00;17.70;;;;;;;27.30;51.93;99709.47;5009080;28;100651;-87
2023/08/26 06:57:04;;;;;;;20.48;19.00;;;;;;;27.40;51.73;99707.44;5007988;28;100344;-88
2023/08/26 06:59:29;;;;;;;20.30;18.67;;;;;;;27.85;50.92;99713.94;5034167;28;96761;-88
2023/08/26 07:01:54;;;;;;;19.88;18.38;;;;;;;27.38;51.35;99714.84;5024081;28;96727;-88
2023/08/26 07:04:20;;;;;;;19.65;18.15;;;;;;;27.23;51.75;99711.22;5032570;27;99363;-87
2023/08/26 07:06:46;;;;;;;19.55;18.25;;;;;;;27.38;51.96;99701.38;5037537;27;98662;-88
2023/08/26 07:09:12;;;;;;;19.88;18.50;;;;;;;27.49;51.51;99706.38;5028002;27;96878;-88
2023/08/26 07:11:37;;;;;;;19.83;18.48;;;;;;;27.75;51.18;99702.50;5041683;27;97071;-87
2023/08/26 07:14:03;;;;;;;20.40;18.70;;;;;;;27.80;50.75;99696.63;5025659;28;98783;-86
2023/08/26 07:16:29;;;;;;;19.38;18.08;;;;;;;28.19;49.93;99718.91;5029211;28;97500;-87
2023/08/26 07:18:54;;;;;;;20.05;18.35;;;;;;;28.41;49.56;99719.94;5033597;27;97407;-87
2023/08/26 07:21:20;;;;;;;19.98;18.48;;;;;;;28.65;49.14;99716.19;5049466;27;96820;-87
2023/08/26 07:23:45;;;;;;;18.98;17.52;;;;;;;28.58;49.56;99706.31;5039339;27;99004;-87
2023/08/26 07:26:11;;;;;;;19.65;18.30;;;;;;;28.58;49.95;99720.63;5053610;27;98556;-87
2023/08/26 07:28:37;;;;;;;20.25;18.75;;;;;;;28.66;49.61;99720.56;5039136;27;96777;-87
2023/08/26 07:31:04;;;;;;;19.42;18.13;;;;;;;28.93;49.01;99723.66;5027472;28;96764;-87
2023/08/26 07:33:30;;;;;;;19.63;18.27;;;;;;;29.51;47.87;99723.84;5033351;28;99041;-87
2023/08/26 07:36:06;;;;;;;20.75;19.35;;;;;;;33.11;40.59;99728.25;5039861;27;98737;-87
2023/08/26 07:38:32;;;;;;;20.65;19.25;;;;;;;31.63;42.86;99723.94;5039628;27;96688;-85
2023/08/26 07:40:58;;;;;;;20.30;18.92;;;;;;;31.45;44.04;99732.66;5038970;27;96875;-84
2023/08/26 07:43:23;;;;;;;20.23;18.83;;;;;;;34.78;38.54;99730.88;5041322;27;97865;-85
2023/08/26 07:45:49;;;;;;;19.85;18.63;;;;;;;39.36;32.06;99732.41;5032881;28;98285;-85
2023/08/26 07:48:15;;;;;;;19.63;18.42;;;;;;;39.85;30.61;99742.56;5043011;27;97034;-84
2023/08/26 07:50:41;;;;;;;18.95;17.85;;;;;;;36.84;34.69;99741.75;5035507;27;96833;-84
2023/08/26 07:53:07;;;;;;;19.60;18.30;;;;;;;34.84;37.09;99740.03;5020746;28;98656;-85
2023/08/26 07:55:32;;;;;;;19.38;17.98;;;;;;;33.72;39.03;99751.50;5032979;28;98614;-85
2023/08/26 07:57:58;;;;;;;20.42;18.92;;;;;;;33.07;40.29;99750.63;5024417;27;96679;-84
2023/08/26 08:00:23;;;;;;;21.20;19.30;;;;;;;34.20;38.83;99750.19;5042418;27;97111;-85
2023/08/26 08:02:49;;;;;;;19.33;18.13;;;;;;;35.02;37.15;99750.13;5050777;27;99087;-85
2023/08/26 08:05:14;;;;;;;18.80;17.60;;;;;;;35.07;37.42;99748.41;5043422;27;98376;-85
2023/08/26 08:07:40;;;;;;;19.23;17.90;;;;;;;33.86;39.39;99765.88;5046834;27;96600;-85
2023/08/26 08:10:08;;;;;;;19.33;18.10;;;;;;;33.28;40.27;99765.84;5034091;28;97529;-86
2023/08/26 08:12:34;;;;;;;19.02;17.83;;;;;;;33.13;39.99;99756.06;5032793;28;98939;-85
2023/08/26 08:14:59;;;;;;;19.45;18.25;;;;;;;36.86;34.30;99761.50;5047107;27;98994;-85
2023/08/26 08:17:25;;;;;;;20.30;18.90;;;;;;;35.19;36.55;99770.31;5033038;28;96658;-85
2023/08/26 08:19:50;;;;;;;19.30;18.10;;;;;;;39.04;31.70;99775.28;5032447;28;96863;-85
2023/08/26 08:22:16;;;;;;;19.20;17.83;;;;;;;42.90;26.35;99769.06;5041858;27;98881;-86
2023/08/26 08:24:43;;;;;;;19.48;18.17;;;;;;;41.86;27.22;99773.94;5024690;28;98921;-85
2023/08/26 08:27:08;;;;;;;20.15;18.48;;;;;;;38.09;31.48;99774.25;5022290;27;96868;-85
2023/08/26 08:29:34;;;;;;;19.77;18.27;;;;;;;36.22;34.28;99782.31;5053003;27;96773;-85
2023/08/26 08:32:01;;;;;;;20.65;19.05;;;;;;;35.19;35.39;99788.59;5035888;27;99008;-86
2023/08/26 08:34:26;;;;;;;20.48;18.90;;;;;;;34.51;36.69;99768.41;5036259;28;98346;-85
2023/08/26 08:36:52;;;;;;;19.98;18.67;;;;;;;34.13;37.72;99784.81;5022299;28;96601;-86
2023/08/26 08:39:17;;;;;;;19.85;18.23;;;;;;;33.64;38.18;99781.66;5036444;28;96860;-85
2023/08/26 08:41:46;;;;;;;20.63;19.15;;;;;;;33.07;39.08;99794.13;5023926;28;99140;-85
2023/08/26 08:44:13;;;;;;;21.10;19.35;;;;;;;32.81;39.26;99773.22;5016164;28;98905;-85
2023/08/26 08:46:39;;;;;;;20.33;18.95;;;;;;;33.85;37.90;99774.25;5036272;28;96720;-86
2023/08/26 08:49:05;;;;;;;20.05;18.63;;;;;;;33.14;39.25;99778.66;5032715;27;97985;-86
2023/08/26 08:51:32;;;;;;;19.98;18.58;;;;;;;32.64;40.36;99759.25;5035746;28;98982;-86
2023/08/26 08:53:59;;;;;;;20.02;18.55;;;;;;;32.87;40.47;99772.38;5018593;27;97638;-85
2023/08/26 08:56:24;;;;;;;20.95;19.42;;;;;;;33.33;39.85;99760.59;5024023;28;96721;-84
2023/08/26 08:58:51;;;;;;;20.65;18.98;;;;;;;34.33;38.83;99765.63;5014744;28;96924;-86
2023/08/26 09:01:18;;;;;;;20.20;18.80;;;;;;;33.92;38.43;99753.25;5016779;28;99317;-86
2023/08/26 09:03:45;;;;;;;20.42;18.92;;;;;;;34.54;37.75;99757.06;5007012;28;98589;-86
2023/08/26 09:06:10;;;;;;;19.73;18.33;;;;;;;36.90;34.64;99745.44;5001006;28;96785;-87
2023/08/26 09:08:36;;;;;;;19.15;17.92;;;;;;;37.79;33.19;99734.22;5025384;28;96883;-86
2023/08/26 09:11:01;;;;;;;19.83;18.52;;;;;;;36.91;34.04;99726.03;5034711;28;98571;-86
2023/08/26 09:13:27;;;;;;;19.90;18.45;;;;;;;36.25;35.31;99738.94;5036107;28;98393;-86
2023/08/26 09:15:53;;;;;;;18.75;17.55;;;;;;;36.11;35.71;99742.97;5035888;28;96706;-86
2023/08/26 09:18:19;;;;;;;20.30;18.85;;;;;;;36.09;35.47;99736.88;5018138;28;96879;-85
2023/08/26 09:20:47;;;;;;;20.45;18.83;;;;;;;36.63;34.89;99745.09;5024152;28;98724;-87
2023/08/26 09:23:13;;;;;;;20.33;18.77;;;;;;;36.64;34.93;99731.19;5029156;28;97815;-86
2023/08/26 09:25:38;;;;;;;19.92;18.63;;;;;;;37.18;33.94;99731.06;5030312;28;96676;-87
2023/08/26 09:28:04;;;;;;;20.40;19.02;;;;;;;37.79;33.31;99734.22;5027187;28;96853;-87
2023/08/26 09:30:30;;;;;;;19.77;18.38;;;;;;;38.02;33.02;99725.94;5031408;28;99000;-87
2023/08/26 09:32:56;;;;;;;20.38;18.98;;;;;;;38.23;33.15;99731.75;5025569;28;98315;-87
2023/08/26 09:35:22;;;;;;;20.38;19.00;;;;;;;38.45;32.89;99716.25;5016599;28;96788;-87
2023/08/26 09:37:56;;;;;;;20.65;19.25;;;;;;;38.62;32.26;99693.47;5043835;27;96785;-87
2023/08/26 09:40:21;;;;;;;19.98;18.65;;;;;;;38.66;32.00;99692.72;5054812;27;97692;-87
2023/08/26 09:42:47;;;;;;;20.25;18.90;;;;;;;38.00;32.12;99695.19;5010373;28;98779;-86
2023/08/26 09:45:17;;;;;;;19.73;18.52;;;;;;;36.88;33.88;99712.84;5027323;28;96692;-86
2023/08/26 09:47:44;;;;;;;19.88;18.48;;;;;;;35.95;34.35;99710.81;5017376;28;96998;-86
2023/08/26 09:50:10;;;;;;;20.42;18.92;;;;;;;35.59;35.14;99699.78;5023563;28;98790;-86
2023/08/26 09:52:46;;;;;;;19.88;18.48;;;;;;;35.55;35.43;99693.13;5032385;28;98344;-86
2023/08/26 09:55:12;;;;;;;20.65;19.27;;;;;;;35.30;35.54;99685.00;5035428;28;96746;-87
2023/08/26 09:57:39;;;;;;;19.75;18.45;;;;;;;35.17;35.68;99693.38;5023634;27;96794;-86
2023/08/26 10:00:10;;;;;;;20.67;19.08;;;;;;;34.87;36.32;99677.72;5046164;27;98928;-87
2023/08/26 10:02:47;;;;;;;20.05;18.55;;;;;;;34.54;36.66;99669.88;5014988;28;96726;-86
2023/08/26 10:05:16;;;;;;;19.73;18.25;;;;;;;34.40;36.14;99660.16;5044784;27;96572;-85
2023/08/26 10:07:49;;;;;;;19.67;18.33;;;;;;;34.72;36.01;99660.91;5037490;27;96778;-86
2023/08/26 10:10:26;;;;;;;19.73;18.33;;;;;;;34.31;35.42;99672.38;5023022;28;99071;-87
2023/08/26 10:12:54;;;;;;;19.67;18.38;;;;;;;33.89;35.60;99661.16;5032062;28;99008;-86
2023/08/26 10:15:20;;;;;;;20.20;18.80;;;;;;;33.73;36.78;99659.81;5023692;28;96733;-87
2023/08/26 10:17:49;;;;;;;20.27;18.65;;;;;;;33.67;37.63;99677.84;5024759;27;96894;-86
2023/08/26 10:20:14;;;;;;;20.48;18.85;;;;;;;33.72;37.45;99671.75;5025323;27;98639;-86
2023/08/26 10:22:40;;;;;;;19.98;18.55;;;;;;;33.98;37.23;99666.13;5021630;28;99855;-86
2023/08/26 10:25:07;;;;;;;21.33;19.60;;;;;;;34.12;36.88;99661.41;5048102;27;96793;-87
2023/08/26 10:27:33;;;;;;;19.55;18.27;;;;;;;34.13;37.13;99675.91;4992266;27;96961;-86
2023/08/26 10:29:59;;;;;;;20.20;18.90;;;;;;;34.24;37.03;99680.63;5032492;27;98949;-86
2023/08/26 10:32:27;;;;;;;20.55;19.08;;;;;;;34.22;37.12;99674.56;5019201;27;98586;-86
2023/08/26 10:34:53;;;;;;;21.10;19.45;;;;;;;34.10;36.91;99662.72;5044999;27;96751;-86
2023/08/26 10:37:23;;;;;;;20.95;19.17;;;;;;;33.87;37.36;99672.28;5033198;28;97102;-85
2023/08/26 10:39:48;;;;;;;20.10;18.80;;;;;;;33.77;37.53;99667.31;5014138;28;99133;-87
2023/08/26 10:42:16;;;;;;;20.55;19.00;;;;;;;33.71;38.13;99673.63;5027854;28;99016;-87
2023/08/26 10:44:45;;;;;;;19.52;18.20;;;;;;;33.59;39.09;99678.09;4996608;28;96656;-86
2023/08/26 10:47:14;;;;;;;20.27;18.87;;;;;;;33.39;38.56;99675.44;5039762;27;96815;-86
2023/08/26 10:49:40;;;;;;;20.63;19.13;;;;;;;33.11;38.64;99675.78;5044929;27;98739;-86
2023/08/26 10:52:16;;;;;;;21.25;19.65;;;;;;;33.07;38.60;99674.53;5025411;28;98691;-87
2023/08/26 10:54:43;;;;;;;19.50;18.10;;;;;;;33.21;38.72;99678.88;5024878;27;96631;-86
2023/08/26 10:57:09;;;;;;;20.58;19.17;;;;;;;33.18;38.12;99689.34;5043494;27;96735;-87
2023/08/26 10:59:39;;;;;;;20.50;19.10;;;;;;;32.91;38.45;99690.22;5047656;27;97576;-86
2023/08/26 11:02:09;;;;;;;19.98;18.48;;;;;;;32.65;39.28;99687.56;5025150;28;98749;-86
2023/08/26 11:04:38;;;;;;;19.63;18.42;;;;;;;32.35;39.72;99677.13;5028266;28;97098;-86
2023/08/26 11:07:04;;;;;;;19.80;18.40;;;;;;;32.07;40.33;99690.06;5016114;28;96905;-86
2023/08/26 11:09:29;;;;;;;21.05;19.65;;;;;;;31.82;40.30;99695.19;5013206;28;97957;-86
2023/08/26 11:11:55;;;;;;;20.48;19.00;;;;;;;31.42;40.68;99685.06;5039354;27;97829;-87
2023/08/26 11:14:30;;;;;;;19.83;18.52;;;;;;;31.45;41.33;99716.38;5042299;27;96724;-87